sensor_id;sensor_type;location;lat;lon;timestamp;temperature;humidity
39103;DHT22;24847;48.218;16.414;2022-12-20T00:00:21;-1.40;99.90
39103;DHT22;24847;48.218;16.414;2022-12-20T00:05:23;-1.40;99.90
39103;DHT22;24847;48.218;16.414;2022-12-20T00:10:26;-1.30;99.90
39103;DHT22;24847;48.218;16.414;2022-12-20T00:15:29;-1.50;99.90
39103;DHT22;24847;48.218;16.414;2022-12-20T00:20:32;-1.40;99.90
39103;DHT22;24847;48.218;16.414;2022-12-20T00:25:35;-1.30;99.90
39103;DHT22;24847;48.218;16.414;2022-12-20T00:30:38;-1.60;99.90
39103;DHT22;24847;48.218;16.414;2022-12-20T00:35:41;-1.50;99.90
39103;DHT22;24847;48.218;16.414;2022-12-20T00:40:43;-1.50;99.90
39103;DHT22;24847;48.218;16.414;2022-12-20T00:45:47;-1.50;99.90
39103;DHT22;24847;48.218;16.414;2022-12-20T00:50:50;-1.50;99.90
39103;DHT22;24847;48.218;16.414;2022-12-20T00:55:52;-1.40;99.90
39103;DHT22;24847;48.218;16.414;2022-12-20T01:00:56;-1.40;99.90
39103;DHT22;24847;48.218;16.414;2022-12-20T01:05:59;-1.40;99.90
39103;DHT22;24847;48.218;16.414;2022-12-20T01:11:04;-1.40;99.90
39103;DHT22;24847;48.218;16.414;2022-12-20T01:16:12;-1.60;99.90
39103;DHT22;24847;48.218;16.414;2022-12-20T01:21:17;-1.60;99.90
39103;DHT22;24847;48.218;16.414;2022-12-20T01:26:22;-1.60;99.90
39103;DHT22;24847;48.218;16.414;2022-12-20T01:31:28;-1.60;99.90
39103;DHT22;24847;48.218;16.414;2022-12-20T01:36:33;-1.60;99.90
39103;DHT22;24847;48.218;16.414;2022-12-20T01:41:36;-1.60;99.90
39103;DHT22;24847;48.218;16.414;2022-12-20T01:46:40;-1.60;99.90
39103;DHT22;24847;48.218;16.414;2022-12-20T01:51:46;-1.60;99.90
39103;DHT22;24847;48.218;16.414;2022-12-20T01:56:53;-1.60;99.90
39103;DHT22;24847;48.218;16.414;2022-12-20T02:02:01;-1.60;99.90
39103;DHT22;24847;48.218;16.414;2022-12-20T02:07:05;-1.60;99.90
39103;DHT22;24847;48.218;16.414;2022-12-20T02:12:10;-1.60;99.90
39103;DHT22;24847;48.218;16.414;2022-12-20T02:17:23;-1.60;99.90
39103;DHT22;24847;48.218;16.414;2022-12-20T02:22:43;-1.60;99.90
39103;DHT22;24847;48.218;16.414;2022-12-20T02:28:00;-1.40;99.90
39103;DHT22;24847;48.218;16.414;2022-12-20T02:33:07;-1.50;99.90
39103;DHT22;24847;48.218;16.414;2022-12-20T02:38:28;-1.50;99.90
39103;DHT22;24847;48.218;16.414;2022-12-20T02:43:32;-1.60;99.90
39103;DHT22;24847;48.218;16.414;2022-12-20T02:49:01;-1.50;99.90
39103;DHT22;24847;48.218;16.414;2022-12-20T02:54:06;-1.60;99.90
39103;DHT22;24847;48.218;16.414;2022-12-20T02:59:12;-1.60;99.90
39103;DHT22;24847;48.218;16.414;2022-12-20T03:04:20;-1.50;99.90
39103;DHT22;24847;48.218;16.414;2022-12-20T03:09:24;-1.30;99.90
39103;DHT22;24847;48.218;16.414;2022-12-20T03:14:27;-1.60;99.90
39103;DHT22;24847;48.218;16.414;2022-12-20T03:19:30;-1.60;99.90
39103;DHT22;24847;48.218;16.414;2022-12-20T03:24:33;-1.50;99.90
39103;DHT22;24847;48.218;16.414;2022-12-20T03:29:35;-1.50;99.90
39103;DHT22;24847;48.218;16.414;2022-12-20T03:34:39;-1.60;99.90
39103;DHT22;24847;48.218;16.414;2022-12-20T03:39:41;-1.50;99.90
39103;DHT22;24847;48.218;16.414;2022-12-20T03:44:43;-1.50;99.90
39103;DHT22;24847;48.218;16.414;2022-12-20T03:49:47;-1.40;99.90
39103;DHT22;24847;48.218;16.414;2022-12-20T03:54:49;-1.50;99.90
39103;DHT22;24847;48.218;16.414;2022-12-20T03:59:52;-1.40;99.90
39103;DHT22;24847;48.218;16.414;2022-12-20T04:04:56;-1.50;99.90
39103;DHT22;24847;48.218;16.414;2022-12-20T04:09:58;-1.50;99.90
39103;DHT22;24847;48.218;16.414;2022-12-20T04:15:00;-1.40;99.90
39103;DHT22;24847;48.218;16.414;2022-12-20T04:20:06;-1.50;99.90
39103;DHT22;24847;48.218;16.414;2022-12-20T04:25:21;-1.50;99.90
39103;DHT22;24847;48.218;16.414;2022-12-20T04:30:24;-1.50;99.90
39103;DHT22;24847;48.218;16.414;2022-12-20T04:35:29;-1.60;99.90
39103;DHT22;24847;48.218;16.414;2022-12-20T04:40:34;-1.50;99.90
39103;DHT22;24847;48.218;16.414;2022-12-20T04:45:52;-1.40;99.90
39103;DHT22;24847;48.218;16.414;2022-12-20T04:50:57;-1.50;99.90
39103;DHT22;24847;48.218;16.414;2022-12-20T04:55:59;-1.30;99.90
39103;DHT22;24847;48.218;16.414;2022-12-20T05:01:02;-1.40;99.90
39103;DHT22;24847;48.218;16.414;2022-12-20T05:06:06;-1.40;99.90
39103;DHT22;24847;48.218;16.414;2022-12-20T05:11:09;-1.50;99.90
39103;DHT22;24847;48.218;16.414;2022-12-20T05:16:11;-1.60;99.90
39103;DHT22;24847;48.218;16.414;2022-12-20T05:21:15;-1.60;99.90
39103;DHT22;24847;48.218;16.414;2022-12-20T05:26:36;-1.60;99.90
39103;DHT22;24847;48.218;16.414;2022-12-20T05:31:38;-1.50;99.90
39103;DHT22;24847;48.218;16.414;2022-12-20T05:36:42;-1.60;99.90
39103;DHT22;24847;48.218;16.414;2022-12-20T05:41:44;-1.50;99.90
39103;DHT22;24847;48.218;16.414;2022-12-20T05:46:47;-1.50;99.90
39103;DHT22;24847;48.218;16.414;2022-12-20T05:51:50;-1.50;99.90
39103;DHT22;24847;48.218;16.414;2022-12-20T05:56:52;-1.60;99.90
39103;DHT22;24847;48.218;16.414;2022-12-20T06:01:55;-1.50;99.90
39103;DHT22;24847;48.218;16.414;2022-12-20T06:06:58;-1.40;99.90
39103;DHT22;24847;48.218;16.414;2022-12-20T06:12:00;-1.50;99.90
39103;DHT22;24847;48.218;16.414;2022-12-20T06:17:04;-1.60;99.90
39103;DHT22;24847;48.218;16.414;2022-12-20T06:22:08;-1.40;99.90
39103;DHT22;24847;48.218;16.414;2022-12-20T06:27:10;-1.50;99.90
39103;DHT22;24847;48.218;16.414;2022-12-20T06:32:13;-1.40;99.90
39103;DHT22;24847;48.218;16.414;2022-12-20T06:37:17;-1.50;99.90
39103;DHT22;24847;48.218;16.414;2022-12-20T06:42:19;-1.40;99.90
39103;DHT22;24847;48.218;16.414;2022-12-20T06:47:21;-1.40;99.90
39103;DHT22;24847;48.218;16.414;2022-12-20T06:52:25;-1.40;99.90
39103;DHT22;24847;48.218;16.414;2022-12-20T06:57:27;-1.50;99.90
39103;DHT22;24847;48.218;16.414;2022-12-20T07:02:29;-1.40;99.90
39103;DHT22;24847;48.218;16.414;2022-12-20T07:07:33;-1.40;99.90
39103;DHT22;24847;48.218;16.414;2022-12-20T07:12:35;-1.40;99.90
39103;DHT22;24847;48.218;16.414;2022-12-20T07:17:37;-1.50;99.90
39103;DHT22;24847;48.218;16.414;2022-12-20T07:22:41;-1.40;99.90
39103;DHT22;24847;48.218;16.414;2022-12-20T07:27:46;-1.40;99.90
39103;DHT22;24847;48.218;16.414;2022-12-20T07:32:49;-1.50;99.90
39103;DHT22;24847;48.218;16.414;2022-12-20T07:37:53;-1.40;99.90
39103;DHT22;24847;48.218;16.414;2022-12-20T07:42:56;-1.30;99.90
39103;DHT22;24847;48.218;16.414;2022-12-20T07:47:58;-1.50;99.90
39103;DHT22;24847;48.218;16.414;2022-12-20T07:53:03;-1.40;99.90
39103;DHT22;24847;48.218;16.414;2022-12-20T07:58:08;-1.50;99.90
39103;DHT22;24847;48.218;16.414;2022-12-20T08:03:14;-1.50;99.90
39103;DHT22;24847;48.218;16.414;2022-12-20T08:08:19;-1.50;99.90
39103;DHT22;24847;48.218;16.414;2022-12-20T08:13:22;-1.40;99.90
39103;DHT22;24847;48.218;16.414;2022-12-20T08:18:24;-1.30;99.90
39103;DHT22;24847;48.218;16.414;2022-12-20T08:23:28;-1.30;99.90
39103;DHT22;24847;48.218;16.414;2022-12-20T08:28:30;-1.30;99.90
39103;DHT22;24847;48.218;16.414;2022-12-20T08:33:33;-1.40;99.90
39103;DHT22;24847;48.218;16.414;2022-12-20T08:38:38;-1.40;99.90
39103;DHT22;24847;48.218;16.414;2022-12-20T08:43:41;-1.40;99.90
39103;DHT22;24847;48.218;16.414;2022-12-20T08:48:44;-1.40;99.90
39103;DHT22;24847;48.218;16.414;2022-12-20T08:53:48;-1.30;99.90
39103;DHT22;24847;48.218;16.414;2022-12-20T08:58:50;-1.30;99.90
39103;DHT22;24847;48.218;16.414;2022-12-20T09:03:52;-1.20;99.90
39103;DHT22;24847;48.218;16.414;2022-12-20T09:08:56;-1.20;99.90
39103;DHT22;24847;48.218;16.414;2022-12-20T09:14:00;-1.20;99.90
39103;DHT22;24847;48.218;16.414;2022-12-20T09:19:03;-1.20;99.90
39103;DHT22;24847;48.218;16.414;2022-12-20T09:24:08;-1.20;99.90
39103;DHT22;24847;48.218;16.414;2022-12-20T09:29:10;-1.20;99.90
39103;DHT22;24847;48.218;16.414;2022-12-20T09:34:13;-1.10;99.90
39103;DHT22;24847;48.218;16.414;2022-12-20T09:39:17;-1.10;99.90
39103;DHT22;24847;48.218;16.414;2022-12-20T09:44:24;-1.20;99.90
39103;DHT22;24847;48.218;16.414;2022-12-20T09:49:32;-1.20;99.90
39103;DHT22;24847;48.218;16.414;2022-12-20T09:54:43;-1.30;99.90
39103;DHT22;24847;48.218;16.414;2022-12-20T09:59:50;-1.20;99.90
39103;DHT22;24847;48.218;16.414;2022-12-20T10:04:53;-1.20;99.90
39103;DHT22;24847;48.218;16.414;2022-12-20T10:15:40;-1.20;99.90
39103;DHT22;24847;48.218;16.414;2022-12-20T10:20:56;-1.20;99.90
39103;DHT22;24847;48.218;16.414;2022-12-20T10:26:04;-1.20;99.90
39103;DHT22;24847;48.218;16.414;2022-12-20T10:31:12;-1.30;99.90
39103;DHT22;24847;48.218;16.414;2022-12-20T10:36:21;-1.30;99.90
39103;DHT22;24847;48.218;16.414;2022-12-20T10:41:30;-1.30;99.90
39103;DHT22;24847;48.218;16.414;2022-12-20T10:46:36;-1.30;99.90
39103;DHT22;24847;48.218;16.414;2022-12-20T10:51:51;-1.40;99.90
39103;DHT22;24847;48.218;16.414;2022-12-20T10:56:57;-1.30;99.90
39103;DHT22;24847;48.218;16.414;2022-12-20T11:02:00;-1.30;99.90
39103;DHT22;24847;48.218;16.414;2022-12-20T11:07:22;-1.30;99.90
39103;DHT22;24847;48.218;16.414;2022-12-20T11:12:27;-1.30;99.90
39103;DHT22;24847;48.218;16.414;2022-12-20T11:17:35;-1.40;99.90
39103;DHT22;24847;48.218;16.414;2022-12-20T11:22:48;-1.40;99.90
39103;DHT22;24847;48.218;16.414;2022-12-20T11:28:07;-1.30;99.90
39103;DHT22;24847;48.218;16.414;2022-12-20T11:33:46;-1.30;99.90
39103;DHT22;24847;48.218;16.414;2022-12-20T11:39:04;-1.20;99.90
39103;DHT22;24847;48.218;16.414;2022-12-20T11:44:19;-1.30;99.90
39103;DHT22;24847;48.218;16.414;2022-12-20T11:55:12;-1.40;99.90
39103;DHT22;24847;48.218;16.414;2022-12-20T12:00:22;-1.30;99.90
39103;DHT22;24847;48.218;16.414;2022-12-20T12:05:28;-1.20;99.90
39103;DHT22;24847;48.218;16.414;2022-12-20T12:10:38;-1.10;99.90
39103;DHT22;24847;48.218;16.414;2022-12-20T12:15:50;-1.20;99.90
39103;DHT22;24847;48.218;16.414;2022-12-20T12:21:00;-1.10;99.90
39103;DHT22;24847;48.218;16.414;2022-12-20T12:26:09;-1.20;99.90
39103;DHT22;24847;48.218;16.414;2022-12-20T12:31:17;-1.40;99.90
39103;DHT22;24847;48.218;16.414;2022-12-20T12:36:36;-1.30;99.90
39103;DHT22;24847;48.218;16.414;2022-12-20T12:42:22;-1.30;99.90
39103;DHT22;24847;48.218;16.414;2022-12-20T12:47:38;-1.30;99.90
39103;DHT22;24847;48.218;16.414;2022-12-20T12:52:49;-1.20;99.90
39103;DHT22;24847;48.218;16.414;2022-12-20T12:57:57;-1.20;99.90
39103;DHT22;24847;48.218;16.414;2022-12-20T13:03:12;-1.10;99.90
39103;DHT22;24847;48.218;16.414;2022-12-20T13:08:17;-1.20;99.90
39103;DHT22;24847;48.218;16.414;2022-12-20T13:13:21;-1.30;99.90
39103;DHT22;24847;48.218;16.414;2022-12-20T13:18:29;-1.40;99.90
39103;DHT22;24847;48.218;16.414;2022-12-20T13:23:32;-1.30;99.90
39103;DHT22;24847;48.218;16.414;2022-12-20T13:28:43;-1.30;99.90
39103;DHT22;24847;48.218;16.414;2022-12-20T13:33:48;-1.30;99.90
39103;DHT22;24847;48.218;16.414;2022-12-20T13:38:57;-1.20;99.90
39103;DHT22;24847;48.218;16.414;2022-12-20T13:49:43;-1.30;99.90
39103;DHT22;24847;48.218;16.414;2022-12-20T13:54:47;-1.30;99.90
39103;DHT22;24847;48.218;16.414;2022-12-20T13:59:53;-1.30;99.90
39103;DHT22;24847;48.218;16.414;2022-12-20T14:05:00;-1.30;99.90
39103;DHT22;24847;48.218;16.414;2022-12-20T14:10:16;-1.40;99.90
39103;DHT22;24847;48.218;16.414;2022-12-20T14:15:27;-1.20;99.90
39103;DHT22;24847;48.218;16.414;2022-12-20T14:20:33;-1.20;99.90
39103;DHT22;24847;48.218;16.414;2022-12-20T14:25:40;-1.40;99.90
39103;DHT22;24847;48.218;16.414;2022-12-20T14:30:44;-1.20;99.90
39103;DHT22;24847;48.218;16.414;2022-12-20T14:35:49;-1.30;99.90
39103;DHT22;24847;48.218;16.414;2022-12-20T14:40:52;-1.40;99.90
39103;DHT22;24847;48.218;16.414;2022-12-20T14:46:15;-1.40;99.90
39103;DHT22;24847;48.218;16.414;2022-12-20T14:51:20;-1.40;99.90
39103;DHT22;24847;48.218;16.414;2022-12-20T14:56:22;-1.30;99.90
39103;DHT22;24847;48.218;16.414;2022-12-20T15:01:25;-1.30;99.90
39103;DHT22;24847;48.218;16.414;2022-12-20T15:06:34;-1.20;99.90
39103;DHT22;24847;48.218;16.414;2022-12-20T15:11:41;-1.20;99.90
39103;DHT22;24847;48.218;16.414;2022-12-20T15:16:46;-1.20;99.90
39103;DHT22;24847;48.218;16.414;2022-12-20T15:21:50;-1.20;99.90
39103;DHT22;24847;48.218;16.414;2022-12-20T15:26:53;-1.30;99.90
39103;DHT22;24847;48.218;16.414;2022-12-20T15:32:03;-1.20;99.90
39103;DHT22;24847;48.218;16.414;2022-12-20T15:37:13;-1.10;99.90
39103;DHT22;24847;48.218;16.414;2022-12-20T15:42:17;-1.20;99.90
39103;DHT22;24847;48.218;16.414;2022-12-20T15:47:22;-1.20;99.90
39103;DHT22;24847;48.218;16.414;2022-12-20T15:52:26;-1.30;99.90
39103;DHT22;24847;48.218;16.414;2022-12-20T15:57:28;-1.20;99.90
39103;DHT22;24847;48.218;16.414;2022-12-20T16:02:31;-1.10;99.90
39103;DHT22;24847;48.218;16.414;2022-12-20T16:07:34;-1.10;99.90
39103;DHT22;24847;48.218;16.414;2022-12-20T16:12:36;-1.30;99.90
39103;DHT22;24847;48.218;16.414;2022-12-20T16:17:39;-1.30;99.90
39103;DHT22;24847;48.218;16.414;2022-12-20T16:22:42;-1.20;99.90
39103;DHT22;24847;48.218;16.414;2022-12-20T16:27:45;-1.30;99.90
39103;DHT22;24847;48.218;16.414;2022-12-20T16:32:47;-1.40;99.90
39103;DHT22;24847;48.218;16.414;2022-12-20T16:37:51;-1.30;99.90
39103;DHT22;24847;48.218;16.414;2022-12-20T16:42:58;-1.20;99.90
39103;DHT22;24847;48.218;16.414;2022-12-20T16:48:01;-1.30;99.90
39103;DHT22;24847;48.218;16.414;2022-12-20T16:53:05;-1.20;99.90
39103;DHT22;24847;48.218;16.414;2022-12-20T16:58:07;-1.20;99.90
39103;DHT22;24847;48.218;16.414;2022-12-20T17:03:09;-1.30;99.90
39103;DHT22;24847;48.218;16.414;2022-12-20T17:08:14;-1.40;99.90
39103;DHT22;24847;48.218;16.414;2022-12-20T17:13:17;-1.30;99.90
39103;DHT22;24847;48.218;16.414;2022-12-20T17:18:20;-1.30;99.90
39103;DHT22;24847;48.218;16.414;2022-12-20T17:23:23;-1.30;99.90
39103;DHT22;24847;48.218;16.414;2022-12-20T17:28:26;-1.20;99.90
39103;DHT22;24847;48.218;16.414;2022-12-20T17:33:29;-1.20;99.90
39103;DHT22;24847;48.218;16.414;2022-12-20T17:38:32;-1.20;99.90
39103;DHT22;24847;48.218;16.414;2022-12-20T17:43:35;-1.10;99.90
39103;DHT22;24847;48.218;16.414;2022-12-20T17:48:37;-1.20;99.90
39103;DHT22;24847;48.218;16.414;2022-12-20T17:53:40;-1.10;99.90
39103;DHT22;24847;48.218;16.414;2022-12-20T17:58:43;-1.00;99.90
39103;DHT22;24847;48.218;16.414;2022-12-20T18:03:45;-1.20;99.90
39103;DHT22;24847;48.218;16.414;2022-12-20T18:08:50;-1.20;99.90
39103;DHT22;24847;48.218;16.414;2022-12-20T18:13:55;-1.20;99.90
39103;DHT22;24847;48.218;16.414;2022-12-20T18:18:59;-1.20;99.90
39103;DHT22;24847;48.218;16.414;2022-12-20T18:24:03;-1.00;99.90
39103;DHT22;24847;48.218;16.414;2022-12-20T18:29:09;-1.10;99.90
39103;DHT22;24847;48.218;16.414;2022-12-20T18:34:12;-1.20;99.90
39103;DHT22;24847;48.218;16.414;2022-12-20T18:39:17;-1.20;99.90
39103;DHT22;24847;48.218;16.414;2022-12-20T18:44:20;-1.10;99.90
39103;DHT22;24847;48.218;16.414;2022-12-20T18:49:22;-1.00;99.90
39103;DHT22;24847;48.218;16.414;2022-12-20T18:54:26;-1.10;99.90
39103;DHT22;24847;48.218;16.414;2022-12-20T18:59:30;-1.20;99.90
39103;DHT22;24847;48.218;16.414;2022-12-20T19:04:33;-1.10;99.90
39103;DHT22;24847;48.218;16.414;2022-12-20T19:09:38;-1.10;99.90
39103;DHT22;24847;48.218;16.414;2022-12-20T19:14:41;-1.00;99.90
39103;DHT22;24847;48.218;16.414;2022-12-20T19:19:44;-1.10;99.90
39103;DHT22;24847;48.218;16.414;2022-12-20T19:24:49;-1.10;99.90
39103;DHT22;24847;48.218;16.414;2022-12-20T19:29:53;-1.20;99.90
39103;DHT22;24847;48.218;16.414;2022-12-20T19:34:56;-1.10;99.90
39103;DHT22;24847;48.218;16.414;2022-12-20T19:40:00;-1.20;99.90
39103;DHT22;24847;48.218;16.414;2022-12-20T19:45:03;-1.10;99.90
39103;DHT22;24847;48.218;16.414;2022-12-20T19:50:07;-1.10;99.90
39103;DHT22;24847;48.218;16.414;2022-12-20T19:55:11;-1.00;99.90
39103;DHT22;24847;48.218;16.414;2022-12-20T20:00:14;-1.10;99.90
39103;DHT22;24847;48.218;16.414;2022-12-20T20:05:17;-1.20;99.90
39103;DHT22;24847;48.218;16.414;2022-12-20T20:10:21;-1.20;99.90
39103;DHT22;24847;48.218;16.414;2022-12-20T20:15:26;-1.20;99.90
39103;DHT22;24847;48.218;16.414;2022-12-20T20:20:29;-1.20;99.90
39103;DHT22;24847;48.218;16.414;2022-12-20T20:25:35;-1.00;99.90
39103;DHT22;24847;48.218;16.414;2022-12-20T20:30:39;-1.00;99.90
39103;DHT22;24847;48.218;16.414;2022-12-20T20:35:42;-1.10;99.90
39103;DHT22;24847;48.218;16.414;2022-12-20T20:40:46;-1.10;99.90
39103;DHT22;24847;48.218;16.414;2022-12-20T20:45:49;-0.90;99.90
39103;DHT22;24847;48.218;16.414;2022-12-20T20:50:54;-1.00;99.90
39103;DHT22;24847;48.218;16.414;2022-12-20T20:55:58;-1.00;99.90
39103;DHT22;24847;48.218;16.414;2022-12-20T21:01:03;-0.90;99.90
39103;DHT22;24847;48.218;16.414;2022-12-20T21:06:08;-0.90;99.90
39103;DHT22;24847;48.218;16.414;2022-12-20T21:11:12;-0.90;99.90
39103;DHT22;24847;48.218;16.414;2022-12-20T21:16:16;-0.90;99.90
39103;DHT22;24847;48.218;16.414;2022-12-20T21:21:21;-1.00;99.90
39103;DHT22;24847;48.218;16.414;2022-12-20T21:26:25;-0.90;99.90
39103;DHT22;24847;48.218;16.414;2022-12-20T21:31:27;-1.00;99.90
39103;DHT22;24847;48.218;16.414;2022-12-20T21:36:30;-1.20;99.90
39103;DHT22;24847;48.218;16.414;2022-12-20T21:41:33;-1.00;99.90
39103;DHT22;24847;48.218;16.414;2022-12-20T21:46:36;-1.00;99.90
39103;DHT22;24847;48.218;16.414;2022-12-20T21:51:38;-1.00;99.90
39103;DHT22;24847;48.218;16.414;2022-12-20T21:56:42;-1.10;99.90
39103;DHT22;24847;48.218;16.414;2022-12-20T22:01:44;-1.00;99.90
39103;DHT22;24847;48.218;16.414;2022-12-20T22:06:47;-1.00;99.90
39103;DHT22;24847;48.218;16.414;2022-12-20T22:11:50;-0.90;99.90
39103;DHT22;24847;48.218;16.414;2022-12-20T22:16:52;-0.90;99.90
39103;DHT22;24847;48.218;16.414;2022-12-20T22:21:55;-0.90;99.90
39103;DHT22;24847;48.218;16.414;2022-12-20T22:26:59;-0.90;99.90
39103;DHT22;24847;48.218;16.414;2022-12-20T22:32:01;-0.90;99.90
39103;DHT22;24847;48.218;16.414;2022-12-20T22:37:03;-0.90;99.90
39103;DHT22;24847;48.218;16.414;2022-12-20T22:42:07;-0.90;99.90
39103;DHT22;24847;48.218;16.414;2022-12-20T22:47:09;-1.00;99.90
39103;DHT22;24847;48.218;16.414;2022-12-20T22:52:12;-0.90;99.90
39103;DHT22;24847;48.218;16.414;2022-12-20T22:57:16;-0.90;99.90
39103;DHT22;24847;48.218;16.414;2022-12-20T23:02:18;-0.90;99.90
39103;DHT22;24847;48.218;16.414;2022-12-20T23:07:20;-0.90;99.90
39103;DHT22;24847;48.218;16.414;2022-12-20T23:12:24;-1.00;99.90
39103;DHT22;24847;48.218;16.414;2022-12-20T23:17:44;-0.90;99.90
39103;DHT22;24847;48.218;16.414;2022-12-20T23:22:46;-0.90;99.90
39103;DHT22;24847;48.218;16.414;2022-12-20T23:27:50;-0.90;99.90
39103;DHT22;24847;48.218;16.414;2022-12-20T23:32:53;-1.10;99.90
39103;DHT22;24847;48.218;16.414;2022-12-20T23:37:55;-1.00;99.90
39103;DHT22;24847;48.218;16.414;2022-12-20T23:43:00;-1.10;99.90
39103;DHT22;24847;48.218;16.414;2022-12-20T23:48:02;-1.10;99.90
39103;DHT22;24847;48.218;16.414;2022-12-20T23:53:04;-1.00;99.90
39103;DHT22;24847;48.218;16.414;2022-12-20T23:58:08;-0.90;99.90
